sensor_id;sensor_type;location;lat;lon;timestamp;P1;durP1;ratioP1;P2;durP2;ratioP2
357;SDS011;167;47.558;7.602;2024-01-27T00:01:38;17.30;;;11.00;;
357;SDS011;167;47.558;7.602;2024-01-27T00:04:04;15.50;;;12.60;;
357;SDS011;167;47.558;7.602;2024-01-27T00:06:30;5.53;;;5.00;;
357;SDS011;167;47.558;7.602;2024-01-27T00:08:56;3.70;;;3.40;;
357;SDS011;167;47.558;7.602;2024-01-27T00:11:22;9.47;;;8.57;;
357;SDS011;167;47.558;7.602;2024-01-27T00:13:51;6.17;;;5.57;;
357;SDS011;167;47.558;7.602;2024-01-27T00:16:17;3.47;;;3.17;;
357;SDS011;167;47.558;7.602;2024-01-27T00:18:43;4.50;;;3.70;;
357;SDS011;167;47.558;7.602;2024-01-27T00:21:09;7.47;;;6.53;;
357;SDS011;167;47.558;7.602;2024-01-27T00:23:35;8.47;;;6.77;;
357;SDS011;167;47.558;7.602;2024-01-27T00:26:01;2.90;;;2.70;;
357;SDS011;167;47.558;7.602;2024-01-27T00:28:27;2.73;;;2.53;;
357;SDS011;167;47.558;7.602;2024-01-27T00:30:53;28.10;;;20.83;;
357;SDS011;167;47.558;7.602;2024-01-27T00:33:19;4.80;;;3.50;;
357;SDS011;167;47.558;7.602;2024-01-27T00:35:45;3.50;;;3.20;;
357;SDS011;167;47.558;7.602;2024-01-27T00:38:11;3.97;;;2.80;;
357;SDS011;167;47.558;7.602;2024-01-27T00:40:37;10.50;;;7.57;;
357;SDS011;167;47.558;7.602;2024-01-27T00:43:04;12.43;;;9.70;;
357;SDS011;167;47.558;7.602;2024-01-27T00:45:30;4.80;;;4.37;;
357;SDS011;167;47.558;7.602;2024-01-27T00:47:57;3.43;;;3.13;;
357;SDS011;167;47.558;7.602;2024-01-27T00:50:23;10.57;;;9.80;;
357;SDS011;167;47.558;7.602;2024-01-27T00:52:49;9.03;;;8.33;;
357;SDS011;167;47.558;7.602;2024-01-27T00:55:15;10.80;;;10.20;;
357;SDS011;167;47.558;7.602;2024-01-27T00:57:42;5.60;;;5.10;;
357;SDS011;167;47.558;7.602;2024-01-27T01:00:08;3.30;;;3.10;;
357;SDS011;167;47.558;7.602;2024-01-27T01:02:34;3.60;;;2.20;;
357;SDS011;167;47.558;7.602;2024-01-27T01:05:01;2.57;;;2.37;;
357;SDS011;167;47.558;7.602;2024-01-27T01:07:29;2.77;;;2.57;;
357;SDS011;167;47.558;7.602;2024-01-27T01:09:55;2.60;;;2.40;;
357;SDS011;167;47.558;7.602;2024-01-27T01:12:21;2.30;;;2.20;;
357;SDS011;167;47.558;7.602;2024-01-27T01:14:47;2.27;;;2.17;;
357;SDS011;167;47.558;7.602;2024-01-27T01:17:13;3.07;;;2.83;;
357;SDS011;167;47.558;7.602;2024-01-27T01:19:39;2.47;;;2.27;;
357;SDS011;167;47.558;7.602;2024-01-27T01:22:05;2.20;;;2.03;;
357;SDS011;167;47.558;7.602;2024-01-27T01:24:32;2.30;;;2.17;;
357;SDS011;167;47.558;7.602;2024-01-27T01:26:58;2.47;;;2.13;;
357;SDS011;167;47.558;7.602;2024-01-27T01:29:24;2.83;;;2.63;;
357;SDS011;167;47.558;7.602;2024-01-27T01:31:50;3.97;;;3.20;;
357;SDS011;167;47.558;7.602;2024-01-27T01:34:17;3.00;;;2.80;;
357;SDS011;167;47.558;7.602;2024-01-27T01:36:43;2.53;;;2.33;;
357;SDS011;167;47.558;7.602;2024-01-27T01:39:09;6.60;;;3.20;;
357;SDS011;167;47.558;7.602;2024-01-27T01:41:36;2.70;;;2.60;;
357;SDS011;167;47.558;7.602;2024-01-27T01:44:02;3.23;;;2.93;;
357;SDS011;167;47.558;7.602;2024-01-27T01:46:28;3.23;;;2.53;;
357;SDS011;167;47.558;7.602;2024-01-27T01:48:54;4.10;;;3.73;;
357;SDS011;167;47.558;7.602;2024-01-27T01:51:20;3.90;;;2.93;;
357;SDS011;167;47.558;7.602;2024-01-27T01:53:47;3.67;;;3.47;;
357;SDS011;167;47.558;7.602;2024-01-27T01:56:14;3.80;;;2.90;;
357;SDS011;167;47.558;7.602;2024-01-27T01:58:40;3.13;;;2.90;;
357;SDS011;167;47.558;7.602;2024-01-27T02:01:06;2.90;;;2.70;;
357;SDS011;167;47.558;7.602;2024-01-27T02:03:32;2.93;;;2.73;;
357;SDS011;167;47.558;7.602;2024-01-27T02:05:58;2.30;;;2.20;;
357;SDS011;167;47.558;7.602;2024-01-27T02:08:24;2.23;;;2.03;;
357;SDS011;167;47.558;7.602;2024-01-27T02:10:50;2.17;;;1.73;;
357;SDS011;167;47.558;7.602;2024-01-27T02:13:17;2.40;;;2.17;;
357;SDS011;167;47.558;7.602;2024-01-27T02:15:43;3.20;;;2.83;;
357;SDS011;167;47.558;7.602;2024-01-27T02:18:09;2.10;;;1.90;;
357;SDS011;167;47.558;7.602;2024-01-27T02:20:35;2.07;;;1.93;;
357;SDS011;167;47.558;7.602;2024-01-27T02:23:02;5.53;;;2.80;;
357;SDS011;167;47.558;7.602;2024-01-27T02:25:29;2.17;;;2.07;;
357;SDS011;167;47.558;7.602;2024-01-27T02:27:56;3.63;;;2.40;;
357;SDS011;167;47.558;7.602;2024-01-27T02:30:22;2.73;;;1.87;;
357;SDS011;167;47.558;7.602;2024-01-27T02:32:48;1.90;;;1.80;;
357;SDS011;167;47.558;7.602;2024-01-27T02:35:14;2.97;;;2.73;;
357;SDS011;167;47.558;7.602;2024-01-27T02:37:41;1.73;;;1.63;;
357;SDS011;167;47.558;7.602;2024-01-27T02:40:07;6.57;;;2.53;;
357;SDS011;167;47.558;7.602;2024-01-27T02:42:34;1.90;;;1.80;;
357;SDS011;167;47.558;7.602;2024-01-27T02:45:00;1.97;;;1.83;;
357;SDS011;167;47.558;7.602;2024-01-27T02:47:27;1.60;;;1.50;;
357;SDS011;167;47.558;7.602;2024-01-27T02:49:53;2.17;;;2.07;;
357;SDS011;167;47.558;7.602;2024-01-27T02:52:19;2.07;;;1.97;;
357;SDS011;167;47.558;7.602;2024-01-27T02:54:45;2.20;;;2.10;;
357;SDS011;167;47.558;7.602;2024-01-27T02:57:11;2.40;;;2.30;;
357;SDS011;167;47.558;7.602;2024-01-27T02:59:38;2.50;;;1.80;;
357;SDS011;167;47.558;7.602;2024-01-27T03:02:07;1.97;;;1.77;;
357;SDS011;167;47.558;7.602;2024-01-27T03:04:33;2.20;;;2.10;;
357;SDS011;167;47.558;7.602;2024-01-27T03:06:59;2.37;;;1.90;;
357;SDS011;167;47.558;7.602;2024-01-27T03:09:25;1.90;;;1.80;;
357;SDS011;167;47.558;7.602;2024-01-27T03:11:51;3.57;;;1.83;;
357;SDS011;167;47.558;7.602;2024-01-27T03:14:17;2.53;;;2.33;;
357;SDS011;167;47.558;7.602;2024-01-27T03:16:43;2.23;;;2.13;;
357;SDS011;167;47.558;7.602;2024-01-27T03:19:09;1.93;;;1.83;;
357;SDS011;167;47.558;7.602;2024-01-27T03:21:35;2.07;;;1.90;;
357;SDS011;167;47.558;7.602;2024-01-27T03:24:01;1.70;;;1.70;;
357;SDS011;167;47.558;7.602;2024-01-27T03:26:28;2.97;;;2.07;;
357;SDS011;167;47.558;7.602;2024-01-27T03:28:54;4.00;;;2.17;;
357;SDS011;167;47.558;7.602;2024-01-27T03:31:20;2.60;;;2.37;;
357;SDS011;167;47.558;7.602;2024-01-27T03:33:46;2.20;;;2.10;;
357;SDS011;167;47.558;7.602;2024-01-27T03:36:12;3.13;;;2.80;;
357;SDS011;167;47.558;7.602;2024-01-27T03:38:42;3.60;;;3.03;;
357;SDS011;167;47.558;7.602;2024-01-27T03:41:07;1.70;;;1.60;;
357;SDS011;167;47.558;7.602;2024-01-27T03:43:33;2.00;;;1.90;;
357;SDS011;167;47.558;7.602;2024-01-27T03:46:00;2.50;;;2.40;;
357;SDS011;167;47.558;7.602;2024-01-27T03:48:26;2.80;;;2.60;;
357;SDS011;167;47.558;7.602;2024-01-27T03:50:52;2.30;;;2.10;;
357;SDS011;167;47.558;7.602;2024-01-27T03:53:18;3.47;;;2.10;;
357;SDS011;167;47.558;7.602;2024-01-27T03:55:44;3.30;;;2.50;;
357;SDS011;167;47.558;7.602;2024-01-27T03:58:10;2.57;;;2.27;;
357;SDS011;167;47.558;7.602;2024-01-27T04:00:36;3.37;;;2.17;;
357;SDS011;167;47.558;7.602;2024-01-27T04:03:02;2.37;;;2.17;;
357;SDS011;167;47.558;7.602;2024-01-27T04:05:28;2.10;;;2.00;;
357;SDS011;167;47.558;7.602;2024-01-27T04:07:55;2.00;;;1.90;;
357;SDS011;167;47.558;7.602;2024-01-27T04:10:21;2.60;;;2.13;;
357;SDS011;167;47.558;7.602;2024-01-27T04:12:47;2.80;;;2.03;;
357;SDS011;167;47.558;7.602;2024-01-27T04:15:13;2.10;;;1.90;;
357;SDS011;167;47.558;7.602;2024-01-27T04:17:39;4.93;;;1.97;;
357;SDS011;167;47.558;7.602;2024-01-27T04:20:09;3.47;;;2.50;;
357;SDS011;167;47.558;7.602;2024-01-27T04:22:36;2.13;;;2.00;;
357;SDS011;167;47.558;7.602;2024-01-27T04:25:02;2.63;;;2.43;;
357;SDS011;167;47.558;7.602;2024-01-27T04:27:28;1.93;;;1.83;;
357;SDS011;167;47.558;7.602;2024-01-27T04:29:54;3.00;;;2.80;;
357;SDS011;167;47.558;7.602;2024-01-27T04:32:21;2.60;;;2.27;;
357;SDS011;167;47.558;7.602;2024-01-27T04:34:48;2.87;;;2.20;;
357;SDS011;167;47.558;7.602;2024-01-27T04:37:14;2.50;;;2.30;;
357;SDS011;167;47.558;7.602;2024-01-27T04:39:40;3.13;;;2.90;;
357;SDS011;167;47.558;7.602;2024-01-27T04:42:06;5.00;;;3.00;;
357;SDS011;167;47.558;7.602;2024-01-27T04:44:32;3.40;;;2.57;;
357;SDS011;167;47.558;7.602;2024-01-27T04:46:58;3.10;;;2.90;;
357;SDS011;167;47.558;7.602;2024-01-27T04:49:25;3.20;;;3.00;;
357;SDS011;167;47.558;7.602;2024-01-27T04:51:51;2.80;;;2.60;;
357;SDS011;167;47.558;7.602;2024-01-27T04:54:17;3.00;;;2.80;;
357;SDS011;167;47.558;7.602;2024-01-27T04:56:43;5.67;;;3.40;;
357;SDS011;167;47.558;7.602;2024-01-27T04:59:09;3.67;;;3.40;;
357;SDS011;167;47.558;7.602;2024-01-27T05:01:35;3.03;;;2.73;;
357;SDS011;167;47.558;7.602;2024-01-27T05:04:01;5.43;;;4.73;;
357;SDS011;167;47.558;7.602;2024-01-27T05:06:27;3.80;;;3.50;;
357;SDS011;167;47.558;7.602;2024-01-27T05:08:53;3.83;;;3.53;;
357;SDS011;167;47.558;7.602;2024-01-27T05:11:25;4.37;;;3.90;;
357;SDS011;167;47.558;7.602;2024-01-27T05:13:52;4.40;;;4.00;;
357;SDS011;167;47.558;7.602;2024-01-27T05:16:18;6.60;;;4.30;;
357;SDS011;167;47.558;7.602;2024-01-27T05:18:43;4.97;;;4.57;;
357;SDS011;167;47.558;7.602;2024-01-27T05:21:09;9.03;;;5.10;;
357;SDS011;167;47.558;7.602;2024-01-27T05:23:35;7.23;;;4.27;;
357;SDS011;167;47.558;7.602;2024-01-27T05:26:01;5.50;;;5.03;;
357;SDS011;167;47.558;7.602;2024-01-27T05:28:27;5.30;;;4.57;;
357;SDS011;167;47.558;7.602;2024-01-27T05:30:53;5.50;;;5.00;;
357;SDS011;167;47.558;7.602;2024-01-27T05:33:19;6.13;;;4.80;;
357;SDS011;167;47.558;7.602;2024-01-27T05:35:45;4.83;;;4.43;;
357;SDS011;167;47.558;7.602;2024-01-27T05:38:11;6.50;;;5.90;;
357;SDS011;167;47.558;7.602;2024-01-27T05:40:37;9.43;;;6.47;;
357;SDS011;167;47.558;7.602;2024-01-27T05:43:03;5.23;;;4.73;;
357;SDS011;167;47.558;7.602;2024-01-27T05:45:29;7.43;;;5.37;;
357;SDS011;167;47.558;7.602;2024-01-27T05:47:56;8.43;;;6.03;;
357;SDS011;167;47.558;7.602;2024-01-27T05:50:22;14.97;;;6.70;;
357;SDS011;167;47.558;7.602;2024-01-27T05:52:48;10.60;;;6.80;;
357;SDS011;167;47.558;7.602;2024-01-27T05:55:14;6.63;;;5.80;;
357;SDS011;167;47.558;7.602;2024-01-27T05:57:41;15.00;;;7.93;;
357;SDS011;167;47.558;7.602;2024-01-27T06:00:07;12.13;;;6.67;;
357;SDS011;167;47.558;7.602;2024-01-27T06:02:34;7.67;;;6.80;;
357;SDS011;167;47.558;7.602;2024-01-27T06:05:01;9.67;;;7.37;;
357;SDS011;167;47.558;7.602;2024-01-27T06:07:27;7.17;;;6.47;;
357;SDS011;167;47.558;7.602;2024-01-27T06:09:53;10.20;;;6.60;;
357;SDS011;167;47.558;7.602;2024-01-27T06:12:19;8.70;;;6.20;;
357;SDS011;167;47.558;7.602;2024-01-27T06:14:46;8.70;;;6.23;;
357;SDS011;167;47.558;7.602;2024-01-27T06:17:12;13.43;;;6.27;;
357;SDS011;167;47.558;7.602;2024-01-27T06:19:40;10.23;;;6.40;;
357;SDS011;167;47.558;7.602;2024-01-27T06:22:06;9.23;;;6.70;;
357;SDS011;167;47.558;7.602;2024-01-27T06:24:32;8.47;;;6.53;;
357;SDS011;167;47.558;7.602;2024-01-27T06:26:58;10.53;;;7.27;;
357;SDS011;167;47.558;7.602;2024-01-27T06:29:24;9.57;;;7.27;;
357;SDS011;167;47.558;7.602;2024-01-27T06:31:51;9.80;;;6.80;;
357;SDS011;167;47.558;7.602;2024-01-27T06:34:18;7.50;;;6.80;;
357;SDS011;167;47.558;7.602;2024-01-27T06:36:44;8.17;;;7.13;;
357;SDS011;167;47.558;7.602;2024-01-27T06:39:10;7.87;;;7.07;;
357;SDS011;167;47.558;7.602;2024-01-27T06:41:36;9.30;;;7.53;;
357;SDS011;167;47.558;7.602;2024-01-27T06:44:02;6.50;;;5.90;;
357;SDS011;167;47.558;7.602;2024-01-27T06:46:29;8.13;;;7.37;;
357;SDS011;167;47.558;7.602;2024-01-27T06:48:55;11.17;;;8.17;;
357;SDS011;167;47.558;7.602;2024-01-27T06:51:20;8.07;;;7.33;;
357;SDS011;167;47.558;7.602;2024-01-27T06:53:46;6.77;;;6.20;;
357;SDS011;167;47.558;7.602;2024-01-27T06:56:13;11.60;;;6.87;;
357;SDS011;167;47.558;7.602;2024-01-27T06:58:39;8.53;;;6.70;;
357;SDS011;167;47.558;7.602;2024-01-27T07:01:06;6.93;;;6.33;;
357;SDS011;167;47.558;7.602;2024-01-27T07:03:32;6.70;;;5.50;;
357;SDS011;167;47.558;7.602;2024-01-27T07:05:58;9.70;;;7.70;;
357;SDS011;167;47.558;7.602;2024-01-27T07:08:26;7.20;;;6.50;;
357;SDS011;167;47.558;7.602;2024-01-27T07:10:52;7.53;;;6.63;;
357;SDS011;167;47.558;7.602;2024-01-27T07:13:18;7.97;;;6.73;;
357;SDS011;167;47.558;7.602;2024-01-27T07:15:44;8.87;;;7.20;;
357;SDS011;167;47.558;7.602;2024-01-27T07:18:10;10.23;;;7.97;;
357;SDS011;167;47.558;7.602;2024-01-27T07:20:36;12.27;;;8.80;;
357;SDS011;167;47.558;7.602;2024-01-27T07:23:02;13.47;;;9.00;;
357;SDS011;167;47.558;7.602;2024-01-27T07:25:28;10.67;;;9.10;;
357;SDS011;167;47.558;7.602;2024-01-27T07:27:54;10.33;;;8.50;;
357;SDS011;167;47.558;7.602;2024-01-27T07:30:20;8.70;;;7.80;;
357;SDS011;167;47.558;7.602;2024-01-27T07:32:46;10.33;;;8.33;;
357;SDS011;167;47.558;7.602;2024-01-27T07:35:12;9.70;;;7.97;;
357;SDS011;167;47.558;7.602;2024-01-27T07:37:38;11.00;;;8.83;;
357;SDS011;167;47.558;7.602;2024-01-27T07:40:05;9.47;;;7.03;;
357;SDS011;167;47.558;7.602;2024-01-27T07:42:31;10.13;;;7.33;;
357;SDS011;167;47.558;7.602;2024-01-27T07:44:57;8.60;;;6.83;;
357;SDS011;167;47.558;7.602;2024-01-27T07:47:23;10.93;;;7.93;;
357;SDS011;167;47.558;7.602;2024-01-27T07:49:49;8.57;;;6.10;;
357;SDS011;167;47.558;7.602;2024-01-27T07:52:15;7.50;;;6.77;;
357;SDS011;167;47.558;7.602;2024-01-27T07:54:41;8.20;;;6.40;;
357;SDS011;167;47.558;7.602;2024-01-27T07:57:07;8.20;;;6.57;;
357;SDS011;167;47.558;7.602;2024-01-27T07:59:33;7.47;;;6.30;;
357;SDS011;167;47.558;7.602;2024-01-27T08:01:59;6.23;;;5.63;;
357;SDS011;167;47.558;7.602;2024-01-27T08:04:25;9.77;;;7.87;;
357;SDS011;167;47.558;7.602;2024-01-27T08:06:52;8.83;;;6.80;;
357;SDS011;167;47.558;7.602;2024-01-27T08:09:18;8.40;;;5.67;;
357;SDS011;167;47.558;7.602;2024-01-27T08:11:44;6.87;;;5.70;;
357;SDS011;167;47.558;7.602;2024-01-27T08:14:11;6.63;;;6.03;;
357;SDS011;167;47.558;7.602;2024-01-27T08:16:37;6.13;;;5.03;;
357;SDS011;167;47.558;7.602;2024-01-27T08:19:03;5.90;;;5.33;;
357;SDS011;167;47.558;7.602;2024-01-27T08:21:29;6.03;;;5.50;;
357;SDS011;167;47.558;7.602;2024-01-27T08:23:56;6.63;;;5.30;;
357;SDS011;167;47.558;7.602;2024-01-27T08:26:22;6.30;;;5.20;;
357;SDS011;167;47.558;7.602;2024-01-27T08:28:48;8.10;;;5.70;;
357;SDS011;167;47.558;7.602;2024-01-27T08:31:14;6.73;;;6.13;;
357;SDS011;167;47.558;7.602;2024-01-27T08:33:40;6.20;;;5.60;;
357;SDS011;167;47.558;7.602;2024-01-27T08:36:06;8.03;;;6.33;;
357;SDS011;167;47.558;7.602;2024-01-27T08:38:32;6.63;;;5.60;;
357;SDS011;167;47.558;7.602;2024-01-27T08:40:58;7.30;;;5.97;;
357;SDS011;167;47.558;7.602;2024-01-27T08:43:24;9.33;;;5.57;;
357;SDS011;167;47.558;7.602;2024-01-27T08:45:50;7.53;;;5.77;;
357;SDS011;167;47.558;7.602;2024-01-27T08:48:16;5.70;;;5.20;;
357;SDS011;167;47.558;7.602;2024-01-27T08:50:42;7.80;;;6.30;;
357;SDS011;167;47.558;7.602;2024-01-27T08:53:09;6.03;;;5.47;;
357;SDS011;167;47.558;7.602;2024-01-27T08:55:35;10.03;;;7.13;;
357;SDS011;167;47.558;7.602;2024-01-27T08:58:01;9.73;;;5.07;;
357;SDS011;167;47.558;7.602;2024-01-27T09:00:27;8.13;;;6.03;;
357;SDS011;167;47.558;7.602;2024-01-27T09:02:53;7.20;;;5.17;;
357;SDS011;167;47.558;7.602;2024-01-27T09:05:19;6.90;;;6.10;;
357;SDS011;167;47.558;7.602;2024-01-27T09:07:45;5.30;;;4.77;;
357;SDS011;167;47.558;7.602;2024-01-27T09:10:11;5.10;;;4.70;;
357;SDS011;167;47.558;7.602;2024-01-27T09:12:40;4.80;;;4.20;;
357;SDS011;167;47.558;7.602;2024-01-27T09:15:06;6.10;;;5.50;;
357;SDS011;167;47.558;7.602;2024-01-27T09:17:32;5.60;;;5.10;;
357;SDS011;167;47.558;7.602;2024-01-27T09:19:58;8.67;;;6.13;;
357;SDS011;167;47.558;7.602;2024-01-27T09:22:24;6.50;;;5.70;;
357;SDS011;167;47.558;7.602;2024-01-27T09:24:51;7.40;;;5.07;;
357;SDS011;167;47.558;7.602;2024-01-27T09:27:18;6.23;;;5.70;;
357;SDS011;167;47.558;7.602;2024-01-27T09:29:44;5.77;;;5.27;;
357;SDS011;167;47.558;7.602;2024-01-27T09:32:10;9.10;;;6.30;;
357;SDS011;167;47.558;7.602;2024-01-27T09:34:36;5.77;;;5.07;;
357;SDS011;167;47.558;7.602;2024-01-27T09:37:02;7.73;;;5.73;;
357;SDS011;167;47.558;7.602;2024-01-27T09:39:28;5.70;;;5.13;;
357;SDS011;167;47.558;7.602;2024-01-27T09:41:54;6.30;;;5.70;;
357;SDS011;167;47.558;7.602;2024-01-27T09:44:23;5.30;;;4.80;;
357;SDS011;167;47.558;7.602;2024-01-27T09:46:50;6.50;;;5.53;;
357;SDS011;167;47.558;7.602;2024-01-27T09:49:16;5.80;;;5.30;;
357;SDS011;167;47.558;7.602;2024-01-27T09:51:42;6.10;;;5.60;;
357;SDS011;167;47.558;7.602;2024-01-27T09:54:08;8.30;;;4.70;;
357;SDS011;167;47.558;7.602;2024-01-27T09:56:34;5.90;;;5.40;;
357;SDS011;167;47.558;7.602;2024-01-27T09:59:00;5.60;;;5.10;;
357;SDS011;167;47.558;7.602;2024-01-27T10:01:26;6.33;;;5.73;;
357;SDS011;167;47.558;7.602;2024-01-27T10:03:54;5.57;;;5.13;;
357;SDS011;167;47.558;7.602;2024-01-27T10:06:20;5.97;;;5.40;;
357;SDS011;167;47.558;7.602;2024-01-27T10:08:51;7.97;;;5.23;;
357;SDS011;167;47.558;7.602;2024-01-27T10:11:17;5.50;;;4.80;;
357;SDS011;167;47.558;7.602;2024-01-27T10:13:46;5.77;;;5.27;;
357;SDS011;167;47.558;7.602;2024-01-27T10:16:19;6.50;;;5.47;;
357;SDS011;167;47.558;7.602;2024-01-27T10:18:45;6.13;;;5.10;;
357;SDS011;167;47.558;7.602;2024-01-27T10:21:14;6.90;;;6.13;;
357;SDS011;167;47.558;7.602;2024-01-27T10:23:40;6.47;;;5.87;;
357;SDS011;167;47.558;7.602;2024-01-27T10:26:09;6.53;;;5.00;;
357;SDS011;167;47.558;7.602;2024-01-27T10:28:35;4.57;;;4.17;;
357;SDS011;167;47.558;7.602;2024-01-27T10:31:13;5.17;;;4.67;;
357;SDS011;167;47.558;7.602;2024-01-27T10:33:39;5.40;;;4.40;;
357;SDS011;167;47.558;7.602;2024-01-27T10:36:05;4.80;;;4.50;;
357;SDS011;167;47.558;7.602;2024-01-27T10:38:37;4.70;;;4.40;;
357;SDS011;167;47.558;7.602;2024-01-27T10:41:04;6.37;;;4.40;;
357;SDS011;167;47.558;7.602;2024-01-27T10:43:33;5.87;;;5.17;;
357;SDS011;167;47.558;7.602;2024-01-27T10:46:00;4.60;;;4.30;;
357;SDS011;167;47.558;7.602;2024-01-27T10:48:26;4.33;;;4.03;;
357;SDS011;167;47.558;7.602;2024-01-27T10:50:52;5.20;;;4.80;;
357;SDS011;167;47.558;7.602;2024-01-27T10:53:21;5.00;;;4.60;;
357;SDS011;167;47.558;7.602;2024-01-27T10:55:55;4.40;;;4.10;;
357;SDS011;167;47.558;7.602;2024-01-27T10:58:23;4.93;;;4.63;;
357;SDS011;167;47.558;7.602;2024-01-27T11:00:50;4.20;;;4.00;;
357;SDS011;167;47.558;7.602;2024-01-27T11:03:17;3.80;;;3.50;;
357;SDS011;167;47.558;7.602;2024-01-27T11:05:44;4.93;;;4.53;;
357;SDS011;167;47.558;7.602;2024-01-27T11:08:12;4.30;;;4.00;;
357;SDS011;167;47.558;7.602;2024-01-27T11:10:39;4.60;;;4.30;;
357;SDS011;167;47.558;7.602;2024-01-27T11:13:05;4.20;;;4.00;;
357;SDS011;167;47.558;7.602;2024-01-27T11:15:32;4.00;;;3.70;;
357;SDS011;167;47.558;7.602;2024-01-27T11:17:58;3.70;;;3.50;;
357;SDS011;167;47.558;7.602;2024-01-27T11:20:27;3.07;;;2.90;;
357;SDS011;167;47.558;7.602;2024-01-27T11:22:53;3.20;;;3.10;;
357;SDS011;167;47.558;7.602;2024-01-27T11:25:22;4.10;;;3.77;;
357;SDS011;167;47.558;7.602;2024-01-27T11:27:48;3.43;;;3.20;;
357;SDS011;167;47.558;7.602;2024-01-27T11:30:26;3.97;;;3.77;;
357;SDS011;167;47.558;7.602;2024-01-27T11:32:53;3.40;;;3.20;;
357;SDS011;167;47.558;7.602;2024-01-27T11:35:20;3.30;;;3.10;;
357;SDS011;167;47.558;7.602;2024-01-27T11:37:46;4.63;;;4.27;;
357;SDS011;167;47.558;7.602;2024-01-27T11:40:13;4.60;;;4.30;;
357;SDS011;167;47.558;7.602;2024-01-27T11:42:40;3.90;;;3.60;;
357;SDS011;167;47.558;7.602;2024-01-27T11:45:07;4.50;;;4.20;;
357;SDS011;167;47.558;7.602;2024-01-27T11:47:34;3.60;;;3.40;;
357;SDS011;167;47.558;7.602;2024-01-27T11:50:00;4.37;;;4.07;;
357;SDS011;167;47.558;7.602;2024-01-27T11:52:27;3.33;;;3.13;;
357;SDS011;167;47.558;7.602;2024-01-27T11:54:53;4.17;;;3.90;;
357;SDS011;167;47.558;7.602;2024-01-27T11:57:20;4.20;;;4.00;;
357;SDS011;167;47.558;7.602;2024-01-27T11:59:45;4.13;;;3.80;;
357;SDS011;167;47.558;7.602;2024-01-27T12:02:11;3.50;;;3.30;;
357;SDS011;167;47.558;7.602;2024-01-27T12:04:38;5.37;;;4.97;;
357;SDS011;167;47.558;7.602;2024-01-27T12:07:04;5.23;;;4.77;;
357;SDS011;167;47.558;7.602;2024-01-27T12:09:30;5.30;;;4.90;;
357;SDS011;167;47.558;7.602;2024-01-27T12:11:56;6.07;;;4.83;;
357;SDS011;167;47.558;7.602;2024-01-27T12:14:22;4.90;;;4.60;;
357;SDS011;167;47.558;7.602;2024-01-27T12:16:48;5.97;;;5.47;;
357;SDS011;167;47.558;7.602;2024-01-27T12:19:14;5.50;;;5.10;;
357;SDS011;167;47.558;7.602;2024-01-27T12:21:46;5.20;;;4.90;;
357;SDS011;167;47.558;7.602;2024-01-27T12:24:15;6.47;;;6.07;;
357;SDS011;167;47.558;7.602;2024-01-27T12:26:42;5.90;;;5.47;;
357;SDS011;167;47.558;7.602;2024-01-27T12:29:08;5.43;;;5.03;;
357;SDS011;167;47.558;7.602;2024-01-27T12:31:34;6.40;;;5.80;;
357;SDS011;167;47.558;7.602;2024-01-27T12:34:00;5.50;;;5.10;;
357;SDS011;167;47.558;7.602;2024-01-27T12:36:26;5.40;;;5.00;;
357;SDS011;167;47.558;7.602;2024-01-27T12:38:59;5.10;;;4.80;;
357;SDS011;167;47.558;7.602;2024-01-27T12:41:26;5.00;;;4.70;;
357;SDS011;167;47.558;7.602;2024-01-27T12:43:55;5.53;;;5.13;;
357;SDS011;167;47.558;7.602;2024-01-27T12:46:21;6.17;;;5.57;;
357;SDS011;167;47.558;7.602;2024-01-27T12:48:47;5.57;;;5.10;;
357;SDS011;167;47.558;7.602;2024-01-27T12:51:13;4.50;;;4.20;;
357;SDS011;167;47.558;7.602;2024-01-27T12:53:40;4.60;;;4.20;;
357;SDS011;167;47.558;7.602;2024-01-27T12:56:08;4.53;;;4.23;;
357;SDS011;167;47.558;7.602;2024-01-27T12:58:35;3.87;;;3.50;;
357;SDS011;167;47.558;7.602;2024-01-27T13:01:01;4.80;;;4.40;;
357;SDS011;167;47.558;7.602;2024-01-27T13:03:27;5.27;;;4.87;;
357;SDS011;167;47.558;7.602;2024-01-27T13:05:53;5.37;;;4.97;;
357;SDS011;167;47.558;7.602;2024-01-27T13:08:20;4.47;;;4.17;;
357;SDS011;167;47.558;7.602;2024-01-27T13:10:46;6.00;;;3.77;;
357;SDS011;167;47.558;7.602;2024-01-27T13:13:12;3.83;;;3.53;;
357;SDS011;167;47.558;7.602;2024-01-27T13:15:38;3.80;;;3.53;;
357;SDS011;167;47.558;7.602;2024-01-27T13:18:04;5.03;;;4.23;;
357;SDS011;167;47.558;7.602;2024-01-27T13:20:31;3.60;;;3.37;;
357;SDS011;167;47.558;7.602;2024-01-27T13:22:58;3.97;;;3.63;;
357;SDS011;167;47.558;7.602;2024-01-27T13:25:24;3.90;;;3.70;;
357;SDS011;167;47.558;7.602;2024-01-27T13:27:50;4.80;;;3.93;;
357;SDS011;167;47.558;7.602;2024-01-27T13:30:16;4.03;;;3.77;;
357;SDS011;167;47.558;7.602;2024-01-27T13:32:45;4.23;;;3.93;;
357;SDS011;167;47.558;7.602;2024-01-27T13:35:11;3.73;;;3.53;;
357;SDS011;167;47.558;7.602;2024-01-27T13:37:37;4.67;;;4.27;;
357;SDS011;167;47.558;7.602;2024-01-27T13:40:04;8.87;;;4.83;;
357;SDS011;167;47.558;7.602;2024-01-27T13:42:32;4.90;;;4.27;;
357;SDS011;167;47.558;7.602;2024-01-27T13:44:58;4.93;;;4.53;;
357;SDS011;167;47.558;7.602;2024-01-27T13:47:24;4.07;;;3.87;;
357;SDS011;167;47.558;7.602;2024-01-27T13:49:51;3.80;;;3.50;;
357;SDS011;167;47.558;7.602;2024-01-27T13:52:17;4.73;;;4.20;;
357;SDS011;167;47.558;7.602;2024-01-27T13:54:43;3.60;;;3.40;;
357;SDS011;167;47.558;7.602;2024-01-27T13:57:09;4.20;;;3.90;;
357;SDS011;167;47.558;7.602;2024-01-27T13:59:35;4.20;;;3.80;;
357;SDS011;167;47.558;7.602;2024-01-27T14:02:02;3.77;;;3.47;;
357;SDS011;167;47.558;7.602;2024-01-27T14:04:28;3.63;;;3.33;;
357;SDS011;167;47.558;7.602;2024-01-27T14:06:54;3.10;;;2.90;;
357;SDS011;167;47.558;7.602;2024-01-27T14:09:21;2.83;;;2.73;;
357;SDS011;167;47.558;7.602;2024-01-27T14:11:47;6.40;;;3.27;;
357;SDS011;167;47.558;7.602;2024-01-27T14:14:13;3.77;;;3.47;;
357;SDS011;167;47.558;7.602;2024-01-27T14:16:39;2.83;;;2.60;;
357;SDS011;167;47.558;7.602;2024-01-27T14:19:06;2.73;;;2.40;;
357;SDS011;167;47.558;7.602;2024-01-27T14:21:32;2.90;;;2.70;;
357;SDS011;167;47.558;7.602;2024-01-27T14:23:58;3.40;;;2.87;;
357;SDS011;167;47.558;7.602;2024-01-27T14:26:30;3.80;;;2.67;;
357;SDS011;167;47.558;7.602;2024-01-27T14:28:56;2.53;;;2.40;;
357;SDS011;167;47.558;7.602;2024-01-27T14:31:23;3.90;;;3.53;;
357;SDS011;167;47.558;7.602;2024-01-27T14:33:49;2.80;;;2.60;;
357;SDS011;167;47.558;7.602;2024-01-27T14:36:15;3.93;;;3.30;;
357;SDS011;167;47.558;7.602;2024-01-27T14:38:41;3.63;;;3.33;;
357;SDS011;167;47.558;7.602;2024-01-27T14:41:07;3.43;;;3.13;;
357;SDS011;167;47.558;7.602;2024-01-27T14:43:33;4.30;;;3.20;;
357;SDS011;167;47.558;7.602;2024-01-27T14:45:59;3.30;;;3.03;;
357;SDS011;167;47.558;7.602;2024-01-27T14:48:25;3.37;;;3.07;;
357;SDS011;167;47.558;7.602;2024-01-27T14:50:51;3.90;;;3.60;;
357;SDS011;167;47.558;7.602;2024-01-27T14:53:35;3.73;;;3.50;;
357;SDS011;167;47.558;7.602;2024-01-27T14:56:01;4.10;;;3.70;;
357;SDS011;167;47.558;7.602;2024-01-27T14:58:27;3.80;;;3.60;;
357;SDS011;167;47.558;7.602;2024-01-27T15:00:53;4.03;;;3.50;;
357;SDS011;167;47.558;7.602;2024-01-27T15:03:20;3.20;;;3.00;;
357;SDS011;167;47.558;7.602;2024-01-27T15:05:46;3.23;;;2.93;;
357;SDS011;167;47.558;7.602;2024-01-27T15:08:13;4.03;;;3.33;;
357;SDS011;167;47.558;7.602;2024-01-27T15:10:39;4.00;;;3.60;;
357;SDS011;167;47.558;7.602;2024-01-27T15:13:05;3.40;;;3.10;;
357;SDS011;167;47.558;7.602;2024-01-27T15:15:31;3.47;;;3.17;;
357;SDS011;167;47.558;7.602;2024-01-27T15:17:58;2.80;;;2.60;;
357;SDS011;167;47.558;7.602;2024-01-27T15:20:28;2.67;;;2.47;;
357;SDS011;167;47.558;7.602;2024-01-27T15:22:54;5.00;;;2.87;;
357;SDS011;167;47.558;7.602;2024-01-27T15:25:20;2.93;;;2.67;;
357;SDS011;167;47.558;7.602;2024-01-27T15:27:47;2.57;;;2.47;;
357;SDS011;167;47.558;7.602;2024-01-27T15:30:13;2.93;;;2.77;;
357;SDS011;167;47.558;7.602;2024-01-27T15:32:39;2.50;;;2.20;;
357;SDS011;167;47.558;7.602;2024-01-27T15:35:05;2.23;;;2.03;;
357;SDS011;167;47.558;7.602;2024-01-27T15:37:32;2.50;;;2.30;;
357;SDS011;167;47.558;7.602;2024-01-27T15:39:58;2.43;;;2.23;;